PWSweather.com
Personal Weather Stations
Station Observations
BLACKWELL
Blackwell, AlfretonGB DE55

BlackwellAlfretonGB DE55

Lat: 53.12076, Lon: -1.354978

Elevation: 410

Station Type: Vantage Pro

High Low Average
Temperature 48.9°F9.4°C 41.2°F5.1°C 44.6°F7.0°C
Dew Point 43.5°F6.4°C 35.1°F1.7°C 37.8°F3.2°C
Winds 5.0 mph 8.0 kmh Calm Calm 2.0 mph SW3.2 kmh SW
Wind Gusts 15.0 mph24.1 kmh -- 7.0 mph11.3 kmh
Humidity 88% 69% 77%
Pressure 29.90 in1012.5 mb 29.65 in1004.1 mb -
Precipitation 0.02 in0.5 mm - -
Hour Temp Dew Point Humidity Winds Wind Gusts Pressure Precip Precip Rate Daily Precip Total
12:44 AM 44.8°F7.1°C 38.3°F3.5°C 78% 3.0 mph SW4.8 kmh SW 7.0 mph11.3 kmh 29.69 in1005.4 mb 0.00 in0.0 mm 0.00 in0.0 mm 0.00 in0.0 mm
01:44 AM 44.4°F6.9°C 37.6°F3.1°C 77% 3.0 mph SW4.8 kmh SW 8.0 mph12.9 kmh 29.70 in1005.8 mb 0.00 in0.0 mm 0.00 in0.0 mm 0.00 in0.0 mm
02:44 AM 44.2°F6.8°C 36.5°F2.5°C 74% 3.0 mph SW4.8 kmh SW 8.0 mph12.9 kmh 29.72 in1006.4 mb 0.00 in0.0 mm 0.00 in0.0 mm 0.00 in0.0 mm
03:44 AM 43.3°F6.3°C 35.2°F1.8°C 73% 2.0 mph SW3.2 kmh SW 6.0 mph9.7 kmh 29.72 in1006.4 mb 0.00 in0.0 mm 0.00 in0.0 mm 0.00 in0.0 mm
04:44 AM 42.1°F5.6°C 35.1°F1.7°C 76% 1.0 mph SW1.6 kmh SW 6.0 mph9.7 kmh 29.73 in1006.8 mb 0.00 in0.0 mm 0.00 in0.0 mm 0.00 in0.0 mm
05:44 AM 41.9°F5.5°C 37.0°F2.8°C 83% 1.0 mph WSW1.6 kmh WSW 6.0 mph9.7 kmh 29.72 in1006.4 mb 0.00 in0.0 mm 0.00 in0.0 mm 0.00 in0.0 mm
06:44 AM 41.9°F5.5°C 37.9°F3.3°C 86% 4.0 mph WSW6.4 kmh WSW 8.0 mph12.9 kmh 29.70 in1005.8 mb 0.00 in0.0 mm 0.00 in0.0 mm 0.00 in0.0 mm
07:44 AM 43.2°F6.2°C 39.4°F4.1°C 86% 5.0 mph WSW8.0 kmh WSW 11.0 mph17.7 kmh 29.68 in1005.1 mb 0.00 in0.0 mm 0.00 in0.0 mm 0.00 in0.0 mm
08:44 AM 44.2°F6.8°C 40.6°F4.8°C 87% 4.0 mph WSW6.4 kmh WSW 10.0 mph16.1 kmh 29.65 in1004.1 mb 0.00 in0.0 mm 0.00 in0.0 mm 0.00 in0.0 mm
09:44 AM 46.9°F8.3°C 43.5°F6.4°C 88% 4.0 mph SW6.4 kmh SW 9.0 mph14.5 kmh 29.65 in1004.1 mb 0.02 in0.5 mm 0.00 in0.0 mm 0.02 in0.5 mm
10:44 AM 48.9°F9.4°C 39.2°F4.0°C 69% 4.0 mph SW6.4 kmh SW 9.0 mph14.5 kmh 29.69 in1005.4 mb 0.01 in0.3 mm 0.00 in0.0 mm 0.02 in0.5 mm
11:44 AM 47.7°F8.7°C 37.9°F3.3°C 69% 5.0 mph SW8.0 kmh SW 15.0 mph24.1 kmh 29.75 in1007.5 mb 0.00 in0.0 mm 0.00 in0.0 mm 0.02 in0.5 mm
12:44 PM 48.2°F9.0°C 38.5°F3.6°C 69% 5.0 mph SW8.0 kmh SW 11.0 mph17.7 kmh 29.78 in1008.5 mb 0.00 in0.0 mm 0.00 in0.0 mm 0.02 in0.5 mm
01:44 PM 48.7°F9.3°C 40.1°F4.5°C 72% 3.0 mph SW4.8 kmh SW 10.0 mph16.1 kmh 29.82 in1009.8 mb 0.00 in0.0 mm 0.00 in0.0 mm 0.02 in0.5 mm
02:44 PM 47.5°F8.6°C 37.8°F3.2°C 69% 3.0 mph SW4.8 kmh SW 8.0 mph12.9 kmh 29.83 in1010.2 mb 0.00 in0.0 mm 0.00 in0.0 mm 0.02 in0.5 mm
03:44 PM 47.1°F8.4°C 38.5°F3.6°C 72% 2.0 mph SW3.2 kmh SW 7.0 mph11.3 kmh 29.85 in1010.8 mb 0.00 in0.0 mm 0.00 in0.0 mm 0.02 in0.5 mm
04:44 PM 46.0°F7.8°C 36.5°F2.5°C 69% 3.0 mph SW4.8 kmh SW 8.0 mph12.9 kmh 29.87 in1011.5 mb 0.00 in0.0 mm 0.00 in0.0 mm 0.02 in0.5 mm
05:44 PM 44.8°F7.1°C 36.7°F2.6°C 73% 1.0 mph SW1.6 kmh SW 4.0 mph6.4 kmh 29.88 in1011.9 mb 0.00 in0.0 mm 0.00 in0.0 mm 0.02 in0.5 mm
06:44 PM 44.1°F6.7°C 36.5°F2.5°C 75% Calm Calm 5.0 mph8.0 kmh 29.90 in1012.5 mb 0.00 in0.0 mm 0.00 in0.0 mm 0.02 in0.5 mm
07:44 PM 43.9°F6.6°C 37.4°F3.0°C 78% Calm Calm 5.0 mph8.0 kmh 29.90 in1012.5 mb 0.00 in0.0 mm 0.00 in0.0 mm 0.02 in0.5 mm
08:44 PM 42.8°F6.0°C 37.0°F2.8°C 80% Calm Calm 2.0 mph3.2 kmh 29.88 in1011.9 mb 0.00 in0.0 mm 0.00 in0.0 mm 0.02 in0.5 mm
09:44 PM 42.1°F5.6°C 36.1°F2.3°C 79% Calm Calm 1.0 mph1.6 kmh 29.86 in1011.2 mb 0.00 in0.0 mm 0.00 in0.0 mm 0.02 in0.5 mm
10:44 PM 41.5°F5.3°C 36.5°F2.5°C 82% Calm Calm -- 29.83 in1010.2 mb 0.00 in0.0 mm 0.00 in0.0 mm 0.02 in0.5 mm
11:44 PM 41.2°F5.1°C 37.2°F2.9°C 86% Calm Calm 1.0 mph1.6 kmh 29.78 in1008.5 mb 0.00 in0.0 mm 0.00 in0.0 mm 0.02 in0.5 mm